createdAt,value
2023-01-23T00:00:27.617Z,8.84
2023-01-23T00:01:59.798Z,8.82
2023-01-23T00:03:31.880Z,8.78
2023-01-23T00:05:03.549Z,8.77
2023-01-23T00:06:35.291Z,8.76
2023-01-23T00:08:07.615Z,8.80
2023-01-23T00:09:41.943Z,8.81
2023-01-23T00:11:18.626Z,8.80
2023-01-23T00:12:51.478Z,8.77
2023-01-23T00:14:23.034Z,8.78
2023-01-23T00:15:54.643Z,8.81
2023-01-23T00:17:27.567Z,8.84
2023-01-23T00:19:00.421Z,8.90
2023-01-23T00:20:32.865Z,8.97
2023-01-23T00:22:04.719Z,9.04
2023-01-23T00:23:36.547Z,9.07
2023-01-23T00:25:08.368Z,9.07
2023-01-23T00:26:39.919Z,9.14
2023-01-23T00:28:11.476Z,9.17
2023-01-23T00:29:44.045Z,9.19
2023-01-23T00:31:17.468Z,9.27
2023-01-23T00:32:49.205Z,9.27
2023-01-23T00:34:20.853Z,9.31
2023-01-23T00:35:54.707Z,9.35
2023-01-23T00:37:26.565Z,9.40
2023-01-23T00:38:58.209Z,9.46
2023-01-23T00:40:29.864Z,9.46
2023-01-23T00:42:01.361Z,9.49
2023-01-23T00:43:33.665Z,9.48
2023-01-23T00:45:06.140Z,9.48
2023-01-23T00:46:39.050Z,9.54
2023-01-23T00:48:10.608Z,9.57
2023-01-23T00:49:42.428Z,9.56
2023-01-23T00:51:15.574Z,9.56
2023-01-23T00:52:47.175Z,9.55
2023-01-23T00:54:20.290Z,9.53
2023-01-23T00:55:51.783Z,9.49
2023-01-23T00:57:23.368Z,9.48
2023-01-23T00:58:55.621Z,9.38
2023-01-23T01:00:27.239Z,9.40
2023-01-23T01:01:58.778Z,9.37
2023-01-23T01:03:30.520Z,9.35
2023-01-23T01:05:02.315Z,9.37
2023-01-23T01:06:33.930Z,9.34
2023-01-23T01:08:05.613Z,9.36
2023-01-23T01:09:37.126Z,9.36
2023-01-23T01:11:08.652Z,9.39
2023-01-23T01:12:40.212Z,9.46
2023-01-23T01:14:11.880Z,9.46
2023-01-23T01:15:43.643Z,9.50
2023-01-23T01:17:15.216Z,9.54
2023-01-23T01:18:46.929Z,9.55
2023-01-23T01:20:18.804Z,9.46
2023-01-23T01:21:53.561Z,9.42
2023-01-23T01:23:25.381Z,9.40
2023-01-23T01:24:57.586Z,9.39
2023-01-23T01:26:29.164Z,9.39
2023-01-23T01:28:00.720Z,9.39
2023-01-23T01:29:33.315Z,9.40
2023-01-23T01:31:06.300Z,9.41
2023-01-23T01:32:39.985Z,9.39
2023-01-23T01:34:11.476Z,9.35
2023-01-23T01:35:43.096Z,9.31
2023-01-23T01:37:14.652Z,9.28
2023-01-23T01:38:46.135Z,9.28
2023-01-23T01:40:20.245Z,9.26
2023-01-23T01:41:52.067Z,9.20
2023-01-23T01:43:24.634Z,9.16
2023-01-23T01:44:57.197Z,9.17
2023-01-23T01:46:29.655Z,9.18
2023-01-23T01:48:01.368Z,9.18
2023-01-23T01:49:33.147Z,9.20
2023-01-23T01:51:06.823Z,9.16
2023-01-23T01:52:38.332Z,9.14
2023-01-23T01:54:30.228Z,9.09
2023-01-23T01:56:01.784Z,9.07
2023-01-23T01:57:34.829Z,9.05
2023-01-23T01:59:06.396Z,9.10
2023-01-23T02:00:37.962Z,9.14
2023-01-23T02:02:13.408Z,9.17
2023-01-23T02:03:45.945Z,9.17
2023-01-23T02:05:19.017Z,9.18
2023-01-23T02:06:51.988Z,9.16
2023-01-23T02:08:25.038Z,9.22
2023-01-23T02:09:56.766Z,9.25
2023-01-23T02:11:28.355Z,9.25
2023-01-23T02:13:18.352Z,9.27
2023-01-23T02:14:50.034Z,9.30
2023-01-23T02:16:21.998Z,9.32
2023-01-23T02:17:53.445Z,9.28
2023-01-23T02:19:37.113Z,9.21
2023-01-23T02:21:08.769Z,9.10
2023-01-23T02:22:53.821Z,9.04
2023-01-23T02:24:45.067Z,9.01
2023-01-23T02:26:17.528Z,9.08
2023-01-23T02:27:49.156Z,9.09
2023-01-23T02:29:21.049Z,9.08
2023-01-23T02:30:53.056Z,9.06
2023-01-23T02:32:24.819Z,9.04
2023-01-23T02:33:56.811Z,9.07
2023-01-23T02:35:29.072Z,9.07
2023-01-23T02:37:00.966Z,9.07
2023-01-23T02:38:36.931Z,9.02
2023-01-23T02:40:08.912Z,8.99
2023-01-23T02:42:02.045Z,8.96
2023-01-23T02:43:35.404Z,8.92
2023-01-23T02:45:07.187Z,8.89
2023-01-23T02:46:38.910Z,8.92
2023-01-23T02:48:10.704Z,8.95
2023-01-23T02:49:42.901Z,8.93
2023-01-23T02:51:14.874Z,8.91
2023-01-23T02:52:47.383Z,8.93
2023-01-23T02:54:19.255Z,8.92
2023-01-23T02:55:50.833Z,8.92
2023-01-23T02:57:22.508Z,8.99
2023-01-23T02:59:12.579Z,8.97
2023-01-23T03:00:44.112Z,8.93
2023-01-23T03:02:15.917Z,8.89
2023-01-23T03:03:47.560Z,8.87
2023-01-23T03:05:19.975Z,8.84
2023-01-23T03:06:51.510Z,8.86
2023-01-23T03:08:23.317Z,8.86
2023-01-23T03:09:54.899Z,8.83
2023-01-23T03:11:27.462Z,8.79
2023-01-23T03:13:02.206Z,8.80
2023-01-23T03:14:34.965Z,8.84
2023-01-23T03:16:07.096Z,8.89
2023-01-23T03:17:38.640Z,8.86
2023-01-23T03:19:10.664Z,8.84
2023-01-23T03:20:42.306Z,8.89
2023-01-23T03:22:14.977Z,8.94
2023-01-23T03:23:48.003Z,8.96
2023-01-23T03:25:20.311Z,9.02
2023-01-23T03:26:52.148Z,9.02
2023-01-23T03:28:42.445Z,9.01
2023-01-23T03:30:15.855Z,8.99
2023-01-23T03:31:47.546Z,8.96
2023-01-23T03:33:19.196Z,8.91
2023-01-23T03:34:50.997Z,8.81
2023-01-23T03:36:22.500Z,8.82
2023-01-23T03:37:54.727Z,8.81
2023-01-23T03:39:45.011Z,8.87
2023-01-23T03:41:25.625Z,8.84
2023-01-23T03:42:57.145Z,8.82
2023-01-23T03:44:28.918Z,8.76
2023-01-23T03:46:00.495Z,8.71
2023-01-23T03:47:32.249Z,8.69
2023-01-23T03:49:04.124Z,8.68
2023-01-23T03:50:35.704Z,8.67
2023-01-23T03:52:07.480Z,8.66
2023-01-23T03:53:39.076Z,8.62
2023-01-23T03:55:10.649Z,8.60
2023-01-23T03:56:42.665Z,8.60
2023-01-23T03:58:14.181Z,8.58
2023-01-23T03:59:46.095Z,8.57
2023-01-23T04:01:17.679Z,8.55
2023-01-23T04:02:49.183Z,8.55
2023-01-23T04:04:20.691Z,8.54
2023-01-23T04:05:55.497Z,8.52
2023-01-23T04:07:27.589Z,8.52
2023-01-23T04:08:59.209Z,8.46
2023-01-23T04:10:31.146Z,8.45
2023-01-23T04:12:03.047Z,8.45
2023-01-23T04:13:34.807Z,8.45
2023-01-23T04:15:06.699Z,8.42
2023-01-23T04:16:38.231Z,8.42
2023-01-23T04:18:09.930Z,8.43
2023-01-23T04:19:41.449Z,8.38
2023-01-23T04:21:13.214Z,8.42
2023-01-23T04:22:44.691Z,8.49
2023-01-23T04:24:16.798Z,8.60
2023-01-23T04:25:48.543Z,8.60
2023-01-23T04:27:20.053Z,8.60
2023-01-23T04:28:51.593Z,8.60
2023-01-23T04:30:23.255Z,8.56
2023-01-23T04:31:54.834Z,8.49
2023-01-23T04:33:26.321Z,8.46
2023-01-23T04:34:57.913Z,8.48
2023-01-23T04:36:29.477Z,8.55
2023-01-23T04:38:01.032Z,8.52
2023-01-23T04:39:33.091Z,8.50
2023-01-23T04:41:05.008Z,8.53
2023-01-23T04:42:36.731Z,8.48
2023-01-23T04:44:20.488Z,8.44
2023-01-23T04:45:52.728Z,8.42
2023-01-23T04:47:24.361Z,8.41
2023-01-23T04:48:56.168Z,8.37
2023-01-23T04:50:27.714Z,8.34
2023-01-23T04:51:59.536Z,8.30
2023-01-23T04:53:31.146Z,8.27
2023-01-23T04:55:03.258Z,8.25
2023-01-23T04:56:34.836Z,8.23
2023-01-23T04:58:06.459Z,8.21
2023-01-23T04:59:38.042Z,8.17
2023-01-23T05:01:09.834Z,8.17
2023-01-23T05:02:41.448Z,8.16
2023-01-23T05:04:12.983Z,8.16
2023-01-23T05:05:44.703Z,8.12
2023-01-23T05:07:16.375Z,8.16
2023-01-23T05:08:47.920Z,8.19
2023-01-23T05:10:19.682Z,8.18
2023-01-23T05:11:51.668Z,8.22
2023-01-23T05:13:23.180Z,8.24
2023-01-23T05:14:54.673Z,8.21
2023-01-23T05:16:26.247Z,8.26
2023-01-23T05:17:57.982Z,8.27
2023-01-23T05:19:29.621Z,8.32
2023-01-23T05:21:01.337Z,8.35
2023-01-23T05:22:33.729Z,8.40
2023-01-23T05:24:05.445Z,8.42
2023-01-23T05:25:37.114Z,8.45
2023-01-23T05:27:09.181Z,8.46
2023-01-23T05:28:40.752Z,8.47
2023-01-23T05:30:12.343Z,8.52
2023-01-23T05:31:43.978Z,8.53
2023-01-23T05:33:15.570Z,8.47
2023-01-23T05:34:47.215Z,8.43
2023-01-23T05:36:18.864Z,8.37
2023-01-23T05:37:51.688Z,8.36
2023-01-23T05:39:23.210Z,8.30
2023-01-23T05:40:54.819Z,8.22
2023-01-23T05:42:26.423Z,8.20
2023-01-23T05:43:58.144Z,8.19
2023-01-23T05:45:29.681Z,8.18
2023-01-23T05:47:01.242Z,8.16
2023-01-23T05:48:32.834Z,8.16
2023-01-23T05:50:06.201Z,8.15
2023-01-23T05:51:38.269Z,8.11
2023-01-23T05:53:09.883Z,8.10
2023-01-23T05:54:41.391Z,8.09
2023-01-23T05:56:12.987Z,8.08
2023-01-23T05:57:44.545Z,8.11
2023-01-23T05:59:16.413Z,8.07
2023-01-23T06:00:48.162Z,8.06
2023-01-23T06:02:20.180Z,8.06
2023-01-23T06:03:52.135Z,8.06
2023-01-23T06:05:24.048Z,8.07
2023-01-23T06:06:55.635Z,8.08
2023-01-23T06:08:27.186Z,8.02
2023-01-23T06:09:58.834Z,7.98
2023-01-23T06:11:30.574Z,7.99
2023-01-23T06:13:02.127Z,8.01
2023-01-23T06:14:33.875Z,8.05
2023-01-23T06:16:05.856Z,8.10
2023-01-23T06:17:38.110Z,8.08
2023-01-23T06:19:10.772Z,8.08
2023-01-23T06:20:42.444Z,8.07
2023-01-23T06:22:14.063Z,8.06
2023-01-23T06:23:46.208Z,8.08
2023-01-23T06:25:20.701Z,8.11
2023-01-23T06:26:52.791Z,8.11
2023-01-23T06:28:24.819Z,8.11
2023-01-23T06:29:56.432Z,8.08
2023-01-23T06:31:30.700Z,8.10
2023-01-23T06:33:02.364Z,8.11
2023-01-23T06:34:33.999Z,8.12
2023-01-23T06:36:05.784Z,8.10
2023-01-23T06:37:37.439Z,8.10
2023-01-23T06:39:09.054Z,8.05
2023-01-23T06:40:40.695Z,8.03
2023-01-23T06:42:12.350Z,8.02
2023-01-23T06:43:43.925Z,8.05
2023-01-23T06:45:15.501Z,8.08
2023-01-23T06:46:47.348Z,8.10
2023-01-23T06:48:19.686Z,8.11
2023-01-23T06:49:51.602Z,8.12
2023-01-23T06:51:23.620Z,8.13
2023-01-23T06:52:55.137Z,8.13
2023-01-23T06:54:26.802Z,8.14
2023-01-23T06:56:01.784Z,8.14
2023-01-23T06:57:34.066Z,8.12
2023-01-23T06:59:06.146Z,8.13
2023-01-23T07:00:37.779Z,8.15
2023-01-23T07:02:09.932Z,8.19
2023-01-23T07:03:42.352Z,8.19
2023-01-23T07:05:13.956Z,8.23
2023-01-23T07:06:45.532Z,8.25
2023-01-23T07:08:17.713Z,8.28
2023-01-23T07:09:49.829Z,8.28
2023-01-23T07:11:21.712Z,8.29
2023-01-23T07:12:53.717Z,8.32
2023-01-23T07:14:27.293Z,8.32
2023-01-23T07:15:58.836Z,8.33
2023-01-23T07:17:30.755Z,8.33
2023-01-23T07:19:02.744Z,8.32
2023-01-23T07:20:34.453Z,8.29
2023-01-23T07:22:06.958Z,8.26
2023-01-23T07:23:38.526Z,8.28
2023-01-23T07:25:10.241Z,8.27
2023-01-23T07:26:41.789Z,8.27
2023-01-23T07:28:13.426Z,8.21
2023-01-23T07:29:45.029Z,8.21
2023-01-23T07:31:16.848Z,8.21
2023-01-23T07:32:48.827Z,8.24
2023-01-23T07:34:21.238Z,8.27
2023-01-23T07:35:53.188Z,8.30
2023-01-23T07:37:25.521Z,8.28
2023-01-23T07:38:59.101Z,8.26
2023-01-23T07:40:31.202Z,8.23
2023-01-23T07:42:02.865Z,8.22
2023-01-23T07:43:34.528Z,8.20
2023-01-23T07:45:06.807Z,8.18
2023-01-23T07:46:38.761Z,8.17
2023-01-23T07:48:10.387Z,8.15
2023-01-23T07:49:42.002Z,8.11
2023-01-23T07:51:15.782Z,8.11
2023-01-23T07:52:47.377Z,8.08
2023-01-23T07:54:19.105Z,8.06
2023-01-23T07:55:51.259Z,8.04
2023-01-23T07:57:23.086Z,7.97
2023-01-23T07:58:57.412Z,7.92
2023-01-23T08:00:30.429Z,7.84
2023-01-23T08:02:02.433Z,7.80
2023-01-23T08:03:34.247Z,7.80
2023-01-23T08:05:06.299Z,7.78
2023-01-23T08:06:38.793Z,7.78
2023-01-23T08:08:14.065Z,7.78
2023-01-23T08:09:45.769Z,7.78
2023-01-23T08:11:17.553Z,7.77
2023-01-23T08:12:49.226Z,7.74
2023-01-23T08:14:21.545Z,7.75
2023-01-23T08:15:54.516Z,7.79
2023-01-23T08:17:26.540Z,7.84
2023-01-23T08:18:58.198Z,7.83
2023-01-23T08:20:30.403Z,7.82
2023-01-23T08:22:02.039Z,7.83
2023-01-23T08:23:33.987Z,7.80
2023-01-23T08:25:06.091Z,7.78
2023-01-23T08:26:37.807Z,7.76
2023-01-23T08:28:09.565Z,7.71
2023-01-23T08:29:41.422Z,7.65
2023-01-23T08:31:13.710Z,7.68
2023-01-23T08:32:45.789Z,7.68
2023-01-23T08:34:17.547Z,7.70
2023-01-23T08:35:52.802Z,7.71
2023-01-23T08:37:24.968Z,7.73
2023-01-23T08:38:57.099Z,7.81
2023-01-23T08:40:28.909Z,7.88
2023-01-23T08:42:00.586Z,7.94
2023-01-23T08:43:32.697Z,7.99
2023-01-23T08:45:05.182Z,8.08
2023-01-23T08:46:37.472Z,8.20
2023-01-23T08:48:09.681Z,8.31
2023-01-23T08:49:41.349Z,8.37
2023-01-23T08:51:13.542Z,8.40
2023-01-23T08:52:45.385Z,8.38
2023-01-23T08:54:17.192Z,8.37
2023-01-23T08:55:48.732Z,8.36
2023-01-23T08:57:20.309Z,8.28
2023-01-23T08:58:52.026Z,8.24
2023-01-23T09:00:23.801Z,8.25
2023-01-23T09:01:55.500Z,8.28
2023-01-23T09:03:27.028Z,8.24
2023-01-23T09:04:58.658Z,8.26
2023-01-23T09:06:30.429Z,8.23
2023-01-23T09:08:02.184Z,8.21
2023-01-23T09:09:34.047Z,8.14
2023-01-23T09:11:06.716Z,8.11
2023-01-23T09:12:39.002Z,8.08
2023-01-23T09:14:10.719Z,8.03
2023-01-23T09:15:42.364Z,8.00
2023-01-23T09:17:13.994Z,7.98
2023-01-23T09:18:45.596Z,7.99
2023-01-23T09:20:17.679Z,8.00
2023-01-23T09:21:49.335Z,8.08
2023-01-23T09:23:21.035Z,8.12
2023-01-23T09:24:52.581Z,8.06
2023-01-23T09:26:24.545Z,8.01
2023-01-23T09:27:56.219Z,7.95
2023-01-23T09:29:27.755Z,7.93
2023-01-23T09:31:02.938Z,7.91
2023-01-23T09:32:34.603Z,7.88
2023-01-23T09:34:07.976Z,7.84
2023-01-23T09:35:39.588Z,7.84
2023-01-23T09:37:11.241Z,7.91
2023-01-23T09:38:42.954Z,7.96
2023-01-23T09:40:17.829Z,7.94
2023-01-23T09:41:53.502Z,7.97
2023-01-23T09:43:30.247Z,8.00
2023-01-23T09:45:03.867Z,8.03
2023-01-23T09:46:39.984Z,8.12
2023-01-23T09:48:35.031Z,8.18
2023-01-23T09:50:07.669Z,8.27
2023-01-23T09:51:57.685Z,8.34
2023-01-23T09:53:32.114Z,8.28
2023-01-23T09:55:04.499Z,8.25
2023-01-23T09:56:37.028Z,8.28
2023-01-23T09:58:34.999Z,8.33
2023-01-23T10:00:18.252Z,8.42
2023-01-23T10:01:50.050Z,8.53
2023-01-23T10:03:21.560Z,8.57
2023-01-23T10:04:53.374Z,8.58
2023-01-23T10:06:25.490Z,8.61
2023-01-23T10:08:00.394Z,8.59
2023-01-23T10:09:36.477Z,8.55
2023-01-23T10:11:17.897Z,8.50
2023-01-23T10:13:09.247Z,8.40
2023-01-23T10:14:52.636Z,8.38
2023-01-23T10:16:49.869Z,8.40
2023-01-23T10:18:22.207Z,8.43
2023-01-23T10:20:10.337Z,8.37
2023-01-23T10:22:00.554Z,8.34
2023-01-23T10:23:55.110Z,8.33
2023-01-23T10:25:27.268Z,8.32
2023-01-23T10:27:00.833Z,8.32
2023-01-23T10:28:35.420Z,8.35
2023-01-23T10:30:21.127Z,8.40
2023-01-23T10:31:54.442Z,8.43
2023-01-23T10:33:40.907Z,8.43
2023-01-23T10:35:12.934Z,8.42
2023-01-23T10:36:55.709Z,8.44
2023-01-23T10:38:28.326Z,8.47
2023-01-23T10:40:00.105Z,8.48
2023-01-23T10:41:32.035Z,8.46
2023-01-23T10:43:04.028Z,8.45
2023-01-23T10:44:35.665Z,8.47
2023-01-23T10:46:11.626Z,8.52
2023-01-23T10:47:46.347Z,8.51
2023-01-23T10:49:29.286Z,8.56
2023-01-23T10:51:00.980Z,8.58
2023-01-23T10:52:36.544Z,8.60
2023-01-23T10:54:29.570Z,8.59
2023-01-23T10:56:01.608Z,8.53
2023-01-23T10:57:48.926Z,8.52
2023-01-23T10:59:21.920Z,8.54
2023-01-23T11:00:53.458Z,8.49
2023-01-23T11:02:29.138Z,8.49
2023-01-23T11:04:18.041Z,8.52
2023-01-23T11:05:53.449Z,8.56
2023-01-23T11:07:26.040Z,8.51
2023-01-23T11:08:58.852Z,8.56
2023-01-23T11:10:30.467Z,8.64
2023-01-23T11:12:03.507Z,8.70
2023-01-23T11:13:35.199Z,8.77
2023-01-23T11:15:12.865Z,8.81
2023-01-23T11:16:45.280Z,8.87
2023-01-23T11:18:49.735Z,8.92
2023-01-23T11:20:21.412Z,9.00
2023-01-23T11:21:59.758Z,9.03
2023-01-23T11:23:31.538Z,9.07
2023-01-23T11:25:17.704Z,9.10
2023-01-23T11:26:49.710Z,9.12
2023-01-23T11:28:27.231Z,9.16
2023-01-23T11:29:58.828Z,9.20
2023-01-23T11:31:30.504Z,9.16
2023-01-23T11:33:04.930Z,9.16
2023-01-23T11:34:57.469Z,9.19
2023-01-23T11:36:32.004Z,9.24
2023-01-23T11:38:04.169Z,9.21
2023-01-23T11:39:39.059Z,9.17
2023-01-23T11:41:11.308Z,9.19
2023-01-23T11:42:43.115Z,9.13
2023-01-23T11:44:19.139Z,9.11
2023-01-23T11:46:01.196Z,9.10
2023-01-23T11:47:48.522Z,9.12
2023-01-23T11:49:25.231Z,9.12
2023-01-23T11:51:00.536Z,9.10
2023-01-23T11:52:35.362Z,9.03
2023-01-23T11:54:07.212Z,9.00
2023-01-23T11:55:50.816Z,9.02
2023-01-23T11:57:25.368Z,9.03
2023-01-23T11:59:16.963Z,9.04
2023-01-23T12:01:06.844Z,9.04
2023-01-23T12:02:48.984Z,9.07
2023-01-23T12:04:20.747Z,9.09
2023-01-23T12:05:52.313Z,9.09
2023-01-23T12:07:24.019Z,9.12
2023-01-23T12:08:55.747Z,9.20
2023-01-23T12:10:28.837Z,9.27
2023-01-23T12:12:00.408Z,9.29
2023-01-23T12:13:50.896Z,9.24
2023-01-23T12:15:28.584Z,9.21
2023-01-23T12:17:02.329Z,9.18
2023-01-23T12:18:34.500Z,9.18
2023-01-23T12:20:33.495Z,9.17
2023-01-23T12:22:09.794Z,9.21
2023-01-23T12:23:42.598Z,9.19
2023-01-23T12:25:17.352Z,9.22
2023-01-23T12:27:02.927Z,9.27
2023-01-23T12:28:34.763Z,9.29
2023-01-23T12:30:26.529Z,9.36
2023-01-23T12:32:08.231Z,9.43
2023-01-23T12:33:42.735Z,9.47
2023-01-23T12:35:30.045Z,9.47
2023-01-23T12:37:19.259Z,9.42
2023-01-23T12:38:56.808Z,9.40
2023-01-23T12:40:28.501Z,9.39
2023-01-23T12:42:04.011Z,9.40
2023-01-23T12:43:40.604Z,9.40
2023-01-23T12:45:17.399Z,9.45
2023-01-23T12:46:55.078Z,9.50
2023-01-23T12:48:35.684Z,9.42
2023-01-23T12:50:13.121Z,9.37
2023-01-23T12:51:46.503Z,9.38
2023-01-23T12:53:18.977Z,9.41
2023-01-23T12:54:59.039Z,9.43
2023-01-23T12:56:31.405Z,9.46
2023-01-23T12:58:10.301Z,9.48
2023-01-23T12:59:48.989Z,9.54
2023-01-23T13:01:23.726Z,9.58
2023-01-23T13:03:05.229Z,9.54
2023-01-23T13:04:37.928Z,9.48
2023-01-23T13:06:18.648Z,9.35
2023-01-23T13:07:50.383Z,9.26
2023-01-23T13:09:34.182Z,9.24
2023-01-23T13:11:40.899Z,9.22
2023-01-23T13:13:12.597Z,9.21
2023-01-23T13:15:03.558Z,9.20
2023-01-23T13:16:36.522Z,9.26
2023-01-23T13:18:18.997Z,9.31
2023-01-23T13:20:09.351Z,9.32
2023-01-23T13:21:59.792Z,9.27
2023-01-23T13:23:31.380Z,9.28
2023-01-23T13:25:17.859Z,9.33
2023-01-23T13:26:49.432Z,9.38
2023-01-23T13:28:50.613Z,9.40
2023-01-23T13:30:22.591Z,9.32
2023-01-23T13:31:57.443Z,9.26
2023-01-23T13:33:28.993Z,9.25
2023-01-23T13:35:02.165Z,9.13
2023-01-23T13:36:34.773Z,9.06
2023-01-23T13:38:21.511Z,9.02
2023-01-23T13:40:12.022Z,8.98
2023-01-23T13:41:44.402Z,8.96
2023-01-23T13:43:34.776Z,8.90
2023-01-23T13:45:27.328Z,8.83
2023-01-23T14:22:01.934Z,8.43
2023-01-23T14:23:35.725Z,8.43
2023-01-23T14:25:14.549Z,8.42
2023-01-23T14:26:48.291Z,8.41
2023-01-23T14:28:21.070Z,8.35
2023-01-23T14:29:56.160Z,8.32
2023-01-23T14:31:28.805Z,8.35
2023-01-23T14:33:00.743Z,8.38
2023-01-23T14:34:38.531Z,8.37
2023-01-23T14:36:16.952Z,8.41
2023-01-23T14:37:48.778Z,8.43
2023-01-23T14:39:21.200Z,8.46
2023-01-23T14:40:52.710Z,8.46
2023-01-23T14:42:28.733Z,8.47
2023-01-23T14:44:00.381Z,8.51
2023-01-23T14:45:33.442Z,8.51
2023-01-23T14:47:05.739Z,8.51
2023-01-23T14:48:39.180Z,8.47
2023-01-23T14:50:12.498Z,8.42
2023-01-23T14:51:54.324Z,8.32
2023-01-23T14:53:25.940Z,8.29
2023-01-23T14:55:03.149Z,8.30
2023-01-23T14:56:40.046Z,8.25
2023-01-23T14:58:19.173Z,8.22
2023-01-23T14:59:51.069Z,8.17
2023-01-23T15:01:22.789Z,8.14
2023-01-23T15:02:56.390Z,8.08
2023-01-23T15:04:29.307Z,8.08
2023-01-23T15:06:01.162Z,8.11
2023-01-23T15:07:32.875Z,8.08
2023-01-23T15:09:05.703Z,8.02
2023-01-23T15:10:43.033Z,8.00
2023-01-23T15:12:18.282Z,8.00
2023-01-23T15:13:50.988Z,7.96
2023-01-23T15:15:23.404Z,7.93
2023-01-23T15:17:05.035Z,7.88
2023-01-23T15:18:37.859Z,7.86
2023-01-23T15:20:25.601Z,7.84
2023-01-23T15:22:18.677Z,7.81
2023-01-23T15:24:00.084Z,7.76
2023-01-23T15:25:35.445Z,7.72
2023-01-23T15:27:23.086Z,7.67
2023-01-23T15:28:58.312Z,7.57
2023-01-23T15:30:36.217Z,7.52
2023-01-23T15:32:14.134Z,7.46
2023-01-23T15:33:47.940Z,7.43
2023-01-23T15:35:20.427Z,7.39
2023-01-23T15:36:59.284Z,7.36
2023-01-23T15:38:31.128Z,7.32
2023-01-23T15:40:02.952Z,7.27
2023-01-23T15:41:38.653Z,7.25
2023-01-23T15:43:15.249Z,7.22
2023-01-23T15:44:46.762Z,7.18
2023-01-23T15:46:19.035Z,7.16
2023-01-23T15:47:50.566Z,7.14
2023-01-23T15:49:26.126Z,7.13
2023-01-23T15:50:59.165Z,7.12
2023-01-23T15:52:31.499Z,7.12
2023-01-23T15:54:03.606Z,7.11
2023-01-23T15:55:35.549Z,7.08
2023-01-23T15:57:08.601Z,7.08
2023-01-23T15:58:41.110Z,7.04
2023-01-23T16:00:15.886Z,7.05
2023-01-23T16:01:47.860Z,7.06
2023-01-23T16:03:20.220Z,7.03
2023-01-23T16:04:52.231Z,7.02
2023-01-23T16:06:24.116Z,7.06
2023-01-23T16:07:55.927Z,7.03
2023-01-23T16:09:28.783Z,7.02
2023-01-23T16:11:00.498Z,7.00
2023-01-23T16:12:33.157Z,6.96
2023-01-23T16:14:05.313Z,6.97
2023-01-23T16:15:40.351Z,6.94
2023-01-23T16:17:16.999Z,6.93
2023-01-23T16:18:49.139Z,6.94
2023-01-23T16:20:25.287Z,6.93
2023-01-23T16:22:04.503Z,6.90
2023-01-23T16:23:47.131Z,6.89
2023-01-23T16:25:41.853Z,6.86
2023-01-23T16:27:18.249Z,6.85
2023-01-23T16:28:50.508Z,6.86
2023-01-23T16:30:22.899Z,6.83
2023-01-23T16:31:55.393Z,6.83
2023-01-23T16:33:27.639Z,6.81
2023-01-23T16:34:59.273Z,6.79
2023-01-23T16:36:30.899Z,6.77
2023-01-23T16:38:02.603Z,6.75
2023-01-23T16:39:40.997Z,6.73
2023-01-23T16:41:12.568Z,6.71
2023-01-23T16:42:44.893Z,6.68
2023-01-23T16:44:17.425Z,6.67
2023-01-23T16:45:49.055Z,6.66
2023-01-23T16:47:20.869Z,6.65
2023-01-23T16:48:54.956Z,6.64
2023-01-23T16:50:29.415Z,6.65
2023-01-23T16:52:01.149Z,6.66
2023-01-23T16:53:33.862Z,6.67
2023-01-23T16:55:06.036Z,6.66
2023-01-23T16:56:38.387Z,6.65
2023-01-23T16:58:13.621Z,6.65
2023-01-23T16:59:45.244Z,6.66
2023-01-23T17:01:18.167Z,6.66
2023-01-23T17:02:53.689Z,6.68
2023-01-23T17:04:25.378Z,6.68
2023-01-23T17:05:57.341Z,6.67
2023-01-23T17:07:31.598Z,6.65
2023-01-23T17:09:03.242Z,6.65
2023-01-23T17:10:45.893Z,6.61
2023-01-23T17:12:19.158Z,6.60
2023-01-23T17:13:52.895Z,6.63
2023-01-23T17:15:25.151Z,6.63
2023-01-23T17:16:58.000Z,6.63
2023-01-23T17:18:33.303Z,6.60
2023-01-23T17:20:05.702Z,6.61
2023-01-23T17:21:38.958Z,6.63
2023-01-23T17:23:11.835Z,6.61
2023-01-23T17:24:43.415Z,6.61
2023-01-23T17:26:18.298Z,6.62
2023-01-23T17:28:03.590Z,6.62
2023-01-23T17:29:42.057Z,6.64
2023-01-23T17:31:17.713Z,6.66
2023-01-23T17:32:52.960Z,6.65
2023-01-23T17:34:24.939Z,6.66
2023-01-23T17:35:56.472Z,6.63
2023-01-23T17:37:28.255Z,6.59
2023-01-23T17:39:00.379Z,6.57
2023-01-23T17:40:32.082Z,6.57
2023-01-23T17:42:03.871Z,6.54
2023-01-23T17:43:36.336Z,6.52
2023-01-23T17:45:12.053Z,6.52
2023-01-23T17:46:44.672Z,6.49
2023-01-23T17:48:17.615Z,6.48
2023-01-23T17:49:54.633Z,6.44
2023-01-23T17:51:26.648Z,6.41
2023-01-23T17:52:58.508Z,6.42
2023-01-23T17:54:30.254Z,6.41
2023-01-23T17:56:01.927Z,6.41
2023-01-23T17:57:33.682Z,6.40
2023-01-23T17:59:05.221Z,6.41
2023-01-23T18:00:37.682Z,6.42
2023-01-23T18:02:41.827Z,6.36
2023-01-23T18:04:15.807Z,6.36
2023-01-23T18:05:47.579Z,6.39
2023-01-23T18:07:19.156Z,6.38
2023-01-23T18:08:50.964Z,6.36
2023-01-23T18:10:22.678Z,6.38
2023-01-23T18:11:54.765Z,6.35
2023-01-23T18:13:29.461Z,6.33
2023-01-23T18:15:22.001Z,6.30
2023-01-23T18:16:54.247Z,6.31
2023-01-23T18:18:33.231Z,6.31
2023-01-23T18:20:11.673Z,6.33
2023-01-23T18:21:44.390Z,6.31
2023-01-23T18:23:16.056Z,6.32
2023-01-23T18:24:47.858Z,6.30
2023-01-23T18:26:32.015Z,6.28
2023-01-23T18:28:05.237Z,6.24
2023-01-23T18:29:49.640Z,6.26
2023-01-23T18:31:27.091Z,6.26
2023-01-23T18:33:13.892Z,6.24
2023-01-23T18:34:53.777Z,6.22
2023-01-23T18:36:48.573Z,6.21
2023-01-23T18:38:20.414Z,6.18
2023-01-23T18:39:59.279Z,6.16
2023-01-23T18:41:31.040Z,6.16
2023-01-23T18:43:29.472Z,6.16
2023-01-23T18:45:05.524Z,6.14
2023-01-23T18:46:37.739Z,6.14
2023-01-23T18:48:24.249Z,6.15
2023-01-23T18:49:57.258Z,6.12
2023-01-23T18:51:35.260Z,6.08
2023-01-23T18:53:17.505Z,6.06
2023-01-23T18:55:01.805Z,6.04
2023-01-23T18:56:42.471Z,6.04
2023-01-23T18:58:37.414Z,6.10
2023-01-23T19:00:16.858Z,6.09
2023-01-23T19:01:52.424Z,6.08
2023-01-23T19:03:28.339Z,6.10
2023-01-23T19:05:19.458Z,6.11
2023-01-23T19:06:51.209Z,6.11
2023-01-23T19:08:28.360Z,6.12
2023-01-23T19:10:00.141Z,6.11
2023-01-23T19:11:32.043Z,6.08
2023-01-23T19:13:06.634Z,6.07
2023-01-23T19:14:53.891Z,6.05
2023-01-23T19:16:30.375Z,6.03
2023-01-23T19:18:02.041Z,6.05
2023-01-23T19:19:39.806Z,6.01
2023-01-23T19:21:11.406Z,5.98
2023-01-23T19:22:46.107Z,5.97
2023-01-23T19:24:20.992Z,5.99
2023-01-23T19:25:52.741Z,5.98
2023-01-23T19:27:24.779Z,5.97
2023-01-23T19:28:57.470Z,5.96
2023-01-23T19:30:30.672Z,5.94
2023-01-23T19:32:05.425Z,5.93
2023-01-23T19:33:38.158Z,5.92
2023-01-23T19:35:27.094Z,5.90
2023-01-23T19:36:58.667Z,5.87
2023-01-23T19:38:30.125Z,5.81
2023-01-23T19:40:01.755Z,5.77
2023-01-23T19:41:33.328Z,5.74
2023-01-23T19:43:14.132Z,5.73
2023-01-23T19:44:46.595Z,5.72
2023-01-23T19:46:18.643Z,5.74
2023-01-23T19:47:50.840Z,5.74
2023-01-23T19:49:22.560Z,5.72
2023-01-23T19:50:54.093Z,5.72
2023-01-23T19:52:25.759Z,5.72
2023-01-23T19:53:57.559Z,5.72
2023-01-23T19:55:31.055Z,5.70
2023-01-23T19:57:02.583Z,5.71
2023-01-23T19:58:34.373Z,5.71
2023-01-23T20:00:06.171Z,5.69
2023-01-23T20:01:45.806Z,5.68
2023-01-23T20:03:18.229Z,5.66
2023-01-23T20:04:50.044Z,5.63
2023-01-23T20:06:21.619Z,5.60
2023-01-23T20:07:54.177Z,5.59
2023-01-23T20:09:25.779Z,5.56
2023-01-23T20:10:57.280Z,5.57
2023-01-23T20:12:28.942Z,5.55
2023-01-23T20:14:01.075Z,5.53
2023-01-23T20:15:33.955Z,5.51
2023-01-23T20:17:05.746Z,5.50
2023-01-23T20:18:38.032Z,5.48
2023-01-23T20:20:10.005Z,5.46
2023-01-23T20:21:41.561Z,5.48
2023-01-23T20:23:13.110Z,5.48
2023-01-23T20:24:45.141Z,5.48
2023-01-23T20:26:17.487Z,5.47
2023-01-23T20:27:49.209Z,5.46
2023-01-23T20:29:20.853Z,5.45
2023-01-23T20:30:54.219Z,5.43
2023-01-23T20:32:25.932Z,5.41
2023-01-23T20:33:57.639Z,5.41
2023-01-23T20:35:29.936Z,5.43
2023-01-23T20:37:01.768Z,5.42
2023-01-23T20:38:33.758Z,5.41
2023-01-23T20:40:05.922Z,5.39
2023-01-23T20:41:37.502Z,5.43
2023-01-23T20:43:09.286Z,5.44
2023-01-23T20:44:42.051Z,5.45
2023-01-23T20:46:14.548Z,5.45
2023-01-23T20:47:46.962Z,5.42
2023-01-23T20:49:18.458Z,5.45
2023-01-23T20:50:53.564Z,5.46
2023-01-23T20:52:43.586Z,5.46
2023-01-23T20:54:15.168Z,5.45
2023-01-23T20:55:52.232Z,5.41
2023-01-23T20:57:23.931Z,5.45
2023-01-23T20:59:13.876Z,5.45
2023-01-23T21:00:45.669Z,5.46
2023-01-23T21:02:23.077Z,5.47
2023-01-23T21:03:55.263Z,5.44
2023-01-23T21:05:27.275Z,5.43
2023-01-23T21:06:58.927Z,5.44
2023-01-23T21:08:30.757Z,5.47
2023-01-23T21:10:02.358Z,5.47
2023-01-23T21:11:34.105Z,5.50
2023-01-23T21:13:06.020Z,5.48
2023-01-23T21:14:37.983Z,5.48
2023-01-23T21:16:14.234Z,5.48
2023-01-23T21:17:46.369Z,5.47
2023-01-23T21:19:17.972Z,5.44
2023-01-23T21:20:49.492Z,5.45
2023-01-23T21:22:21.119Z,5.42
2023-01-23T21:23:52.784Z,5.42
2023-01-23T21:25:24.561Z,5.41
2023-01-23T21:26:56.113Z,5.43
2023-01-23T21:28:27.812Z,5.45
2023-01-23T21:29:59.306Z,5.45
2023-01-23T21:31:34.403Z,5.46